Quito, Ecuador
Current Conditions -  °F | °C
As of 3:00 PM on Wednesday 26 Nov 2014 (Local Time) from SEQM Reporting Station
Rain Showers Rain Showers  
Wind Chill: 63°   Ceiling: 3000
Heat Index: 63°   Visibility: 6mi
Dew Point: 55°   Wind: 8mph
Humidity: 77%   Direction: 40°NE
Pressure: 30.21"   Gusts: NA
Location:  0.19°S, 78.5°W
Report Text: SEQM 262000Z 04007KT 9999 VCSH BKN030 BKN100 17/13 Q1023 NOSIG RMK A3022
Loading
Personal Weather Stations






























Interactive Weather Map New forecast layout! Learn more

10-Day Weather Forecast

Advertisements
Track Severe Weather on mobile